createdAt,value
2023-05-22T00:01:33.790Z,52.01
2023-05-22T00:06:54.478Z,53.77
2023-05-22T00:09:21.077Z,56.37
2023-05-22T00:11:47.726Z,57.51
2023-05-22T00:14:18.482Z,55.97
2023-05-22T00:16:45.188Z,54.90
2023-05-22T00:19:11.879Z,53.50
2023-05-22T00:21:39.508Z,52.41
2023-05-22T00:24:06.902Z,52.53
2023-05-22T00:26:34.104Z,53.10
2023-05-22T00:29:01.390Z,53.90
2023-05-22T00:31:27.987Z,55.52
2023-05-22T00:33:54.568Z,58.42
2023-05-22T00:36:21.459Z,58.05
2023-05-22T00:38:50.113Z,55.79
2023-05-22T00:41:16.620Z,54.21
2023-05-22T00:43:43.195Z,53.39
2023-05-22T00:46:09.757Z,53.48
2023-05-22T00:48:36.632Z,53.16
2023-05-22T00:51:04.657Z,54.54
2023-05-22T00:53:33.566Z,55.66
2023-05-22T00:56:00.365Z,55.16
2023-05-22T00:58:26.908Z,55.14
2023-05-22T01:00:53.772Z,54.64
2023-05-22T01:03:20.573Z,54.46
2023-05-22T01:05:47.317Z,54.03
2023-05-22T01:08:15.535Z,55.84
2023-05-22T01:10:42.215Z,55.45
2023-05-22T01:13:09.184Z,53.89
2023-05-22T01:15:35.881Z,53.20
2023-05-22T01:18:04.833Z,53.90
2023-05-22T01:20:32.137Z,54.03
2023-05-22T01:23:00.833Z,53.24
2023-05-22T01:25:27.528Z,52.88
2023-05-22T01:27:54.366Z,52.53
2023-05-22T01:30:20.996Z,52.83
2023-05-22T01:32:47.699Z,53.31
2023-05-22T01:35:15.252Z,54.70
2023-05-22T01:37:41.866Z,54.82
2023-05-22T01:40:08.795Z,54.01
2023-05-22T01:42:37.557Z,54.02
2023-05-22T01:45:04.085Z,53.95
2023-05-22T01:47:30.846Z,53.52
2023-05-22T01:49:57.717Z,52.89
2023-05-22T01:52:24.381Z,53.66
2023-05-22T01:54:51.555Z,53.23
2023-05-22T01:57:20.920Z,53.50
2023-05-22T01:59:49.975Z,53.77
2023-05-22T02:02:19.084Z,55.21
2023-05-22T02:04:45.961Z,57.79
2023-05-22T02:07:12.902Z,58.51
2023-05-22T02:09:39.587Z,59.34
2023-05-22T02:12:06.503Z,59.85
2023-05-22T02:14:33.140Z,58.74
2023-05-22T02:17:01.700Z,59.73
2023-05-22T02:19:28.585Z,58.83
2023-05-22T02:21:55.334Z,56.94
2023-05-22T02:24:23.852Z,55.32
2023-05-22T02:26:50.532Z,54.53
2023-05-22T02:29:17.246Z,55.06
2023-05-22T02:31:43.824Z,56.48
2023-05-22T02:34:11.743Z,55.14
2023-05-22T02:36:38.352Z,56.92
2023-05-22T02:39:04.931Z,58.88
2023-05-22T02:41:31.516Z,61.72
2023-05-22T02:43:58.046Z,61.47
2023-05-22T02:46:26.922Z,62.71
2023-05-22T02:48:53.721Z,61.53
2023-05-22T02:51:22.265Z,60.53
2023-05-22T02:53:48.791Z,61.31
2023-05-22T02:56:15.763Z,61.27
2023-05-22T02:58:44.844Z,60.57
2023-05-22T03:01:11.387Z,61.69
2023-05-22T03:03:38.057Z,61.26
2023-05-22T03:06:05.045Z,61.93
2023-05-22T03:08:31.901Z,60.29
2023-05-22T03:10:58.534Z,60.17
2023-05-22T03:13:25.511Z,60.27
2023-05-22T03:15:52.136Z,60.16
2023-05-22T03:18:18.909Z,60.34
2023-05-22T03:20:47.921Z,60.92
2023-05-22T03:23:14.742Z,58.45
2023-05-22T03:25:41.382Z,59.09
2023-05-22T03:28:08.334Z,56.69
2023-05-22T03:30:35.032Z,55.34
2023-05-22T03:33:01.692Z,55.37
2023-05-22T03:35:28.284Z,55.02
2023-05-22T03:37:57.109Z,54.87
2023-05-22T03:40:23.848Z,55.24
2023-05-22T03:42:50.540Z,56.22
2023-05-22T03:45:26.068Z,56.21
2023-05-22T03:47:54.688Z,58.50
2023-05-22T03:50:21.281Z,57.89
2023-05-22T03:52:51.758Z,58.30
2023-05-22T03:55:18.356Z,59.88
2023-05-22T03:57:45.047Z,58.31
2023-05-22T04:00:11.645Z,58.63
2023-05-22T04:02:38.710Z,60.09
2023-05-22T04:05:05.445Z,59.36
2023-05-22T04:07:32.055Z,58.86
2023-05-22T04:09:58.598Z,58.84
2023-05-22T04:12:25.749Z,60.12
2023-05-22T04:14:52.819Z,58.83
2023-05-22T04:17:20.480Z,58.30
2023-05-22T04:19:47.311Z,57.61
2023-05-22T04:22:17.187Z,60.20
2023-05-22T04:24:44.912Z,59.07
2023-05-22T04:27:11.488Z,57.29
2023-05-22T04:29:38.428Z,56.68
2023-05-22T04:32:05.314Z,57.77
2023-05-22T04:34:34.307Z,58.36
2023-05-22T04:37:00.926Z,56.60
2023-05-22T04:39:27.722Z,58.62
2023-05-22T04:41:54.315Z,57.34
2023-05-22T04:44:22.077Z,57.76
2023-05-22T04:46:51.240Z,59.92
2023-05-22T04:49:24.299Z,58.02
2023-05-22T04:51:54.273Z,58.00
2023-05-22T04:54:22.076Z,60.21
2023-05-22T04:56:48.905Z,61.49
2023-05-22T04:59:15.620Z,59.40
2023-05-22T05:01:42.823Z,57.31
2023-05-22T05:04:10.152Z,55.20
2023-05-22T05:06:40.045Z,54.11
2023-05-22T05:09:06.680Z,52.89
2023-05-22T05:11:33.283Z,49.04
2023-05-22T05:14:00.122Z,46.63
2023-05-22T05:16:26.765Z,44.02
2023-05-22T05:18:53.729Z,42.16
2023-05-22T05:21:20.349Z,39.95
2023-05-22T05:23:47.533Z,38.97
2023-05-22T05:26:14.332Z,38.80
2023-05-22T05:28:41.296Z,37.92
2023-05-22T05:31:08.191Z,35.68
2023-05-22T05:33:40.832Z,34.26
2023-05-22T05:36:07.797Z,33.45
2023-05-22T05:38:34.699Z,32.09
2023-05-22T05:41:01.711Z,31.27
2023-05-22T05:43:29.270Z,30.47
2023-05-22T05:45:55.931Z,29.97
2023-05-22T05:48:22.629Z,29.15
2023-05-22T05:50:49.256Z,28.33
2023-05-22T05:53:18.188Z,28.10
2023-05-22T05:55:44.826Z,28.07
2023-05-22T05:58:14.784Z,27.59
2023-05-22T06:00:44.694Z,27.21
2023-05-22T06:03:12.489Z,27.60
2023-05-22T06:05:42.565Z,27.73
2023-05-22T06:08:09.197Z,28.46
2023-05-22T06:10:39.554Z,27.73
2023-05-22T06:13:07.189Z,27.99
2023-05-22T06:15:35.451Z,27.30
2023-05-22T06:18:11.970Z,27.14
2023-05-22T06:20:38.939Z,27.15
2023-05-22T06:23:05.980Z,27.00
2023-05-22T06:25:33.125Z,25.86
2023-05-22T06:28:00.063Z,25.85
2023-05-22T06:30:43.719Z,25.33
2023-05-22T06:33:11.661Z,25.73
2023-05-22T06:35:38.580Z,25.64
2023-05-22T06:38:05.545Z,24.35
2023-05-22T06:40:32.178Z,25.66
2023-05-22T06:42:59.284Z,25.61
2023-05-22T06:45:26.519Z,25.33
2023-05-22T06:47:53.708Z,25.55
2023-05-22T06:50:24.604Z,26.10
2023-05-22T06:52:51.152Z,26.38
2023-05-22T06:55:17.959Z,26.10
2023-05-22T06:57:45.426Z,26.40
2023-05-22T07:00:12.981Z,26.67
2023-05-22T07:02:40.290Z,25.70
2023-05-22T07:05:07.064Z,25.02
2023-05-22T07:07:33.984Z,25.24
2023-05-22T07:10:04.244Z,25.53
2023-05-22T07:12:30.982Z,25.70
2023-05-22T07:14:57.533Z,25.88
2023-05-22T07:17:24.302Z,25.83
2023-05-22T07:19:51.161Z,26.11
2023-05-22T07:22:17.766Z,26.20
2023-05-22T07:24:44.681Z,27.04
2023-05-22T07:27:11.349Z,27.28
2023-05-22T07:29:37.951Z,27.01
2023-05-22T07:32:05.369Z,26.58
2023-05-22T07:37:24.833Z,25.84
2023-05-22T07:39:51.888Z,26.00
2023-05-22T07:42:18.830Z,25.76
2023-05-22T07:44:45.467Z,25.62
2023-05-22T07:47:11.992Z,26.12
2023-05-22T07:49:38.634Z,25.52
2023-05-22T07:52:05.438Z,25.43
2023-05-22T07:54:33.938Z,25.29
2023-05-22T07:57:00.496Z,25.92
2023-05-22T07:59:27.092Z,26.53
2023-05-22T08:01:58.439Z,29.72
2023-05-22T08:04:25.508Z,30.91
2023-05-22T08:06:52.398Z,30.53
2023-05-22T08:09:19.442Z,30.56
2023-05-22T08:11:46.348Z,32.31
2023-05-22T08:14:13.257Z,35.86
2023-05-22T08:16:39.954Z,37.28
2023-05-22T08:19:07.226Z,38.54
2023-05-22T08:21:53.129Z,37.88
2023-05-22T08:24:21.476Z,37.68
2023-05-22T08:26:48.342Z,39.77
2023-05-22T08:29:15.719Z,40.21
2023-05-22T08:31:42.500Z,40.02
2023-05-22T08:34:09.396Z,39.35
2023-05-22T08:36:36.125Z,38.82
2023-05-22T08:39:03.576Z,37.46
2023-05-22T08:41:30.637Z,37.50
2023-05-22T08:43:57.350Z,37.62
2023-05-22T08:46:24.126Z,38.05
2023-05-22T08:48:51.050Z,36.21
2023-05-22T08:51:18.608Z,37.17
2023-05-22T08:53:46.235Z,37.52
2023-05-22T08:56:13.068Z,37.86
2023-05-22T08:58:40.000Z,38.11
2023-05-22T09:01:06.764Z,38.29
2023-05-22T09:03:33.438Z,38.39
2023-05-22T09:06:00.721Z,37.51
2023-05-22T09:08:27.298Z,38.23
2023-05-22T09:10:54.271Z,37.96
2023-05-22T09:13:20.904Z,36.69
2023-05-22T09:15:47.511Z,36.77
2023-05-22T09:18:14.444Z,37.12
2023-05-22T09:20:42.022Z,37.49
2023-05-22T09:23:09.009Z,40.39
2023-05-22T09:25:35.545Z,40.51
2023-05-22T09:28:03.301Z,40.58
2023-05-22T09:30:33.606Z,40.75
2023-05-22T09:33:00.485Z,39.91
2023-05-22T09:35:28.063Z,41.47
2023-05-22T09:37:54.882Z,41.39
2023-05-22T09:40:26.695Z,42.53
2023-05-22T09:42:56.635Z,40.40
2023-05-22T09:45:23.325Z,40.24
2023-05-22T09:47:50.546Z,39.68
2023-05-22T09:50:17.224Z,39.48
2023-05-22T09:52:47.280Z,39.47
2023-05-22T09:55:16.813Z,39.20
2023-05-22T10:00:27.015Z,39.18
2023-05-22T10:02:54.034Z,38.26
2023-05-22T10:05:20.570Z,38.50
2023-05-22T10:07:49.277Z,38.83
2023-05-22T10:10:16.068Z,37.93
2023-05-22T10:12:42.705Z,38.17
2023-05-22T10:15:10.149Z,40.64
2023-05-22T10:17:38.857Z,40.60
2023-05-22T10:20:13.100Z,40.44
2023-05-22T10:22:40.386Z,40.86
2023-05-22T10:25:12.274Z,41.63
2023-05-22T10:27:49.897Z,41.57
2023-05-22T10:30:23.671Z,40.21
2023-05-22T10:32:50.998Z,39.80
2023-05-22T10:35:17.927Z,41.16
2023-05-22T10:37:44.574Z,41.62
2023-05-22T10:40:13.560Z,40.88
2023-05-22T10:42:40.273Z,41.25
2023-05-22T10:45:07.024Z,40.89
2023-05-22T10:47:34.166Z,40.43
2023-05-22T10:50:04.279Z,40.60
2023-05-22T10:52:32.572Z,42.41
2023-05-22T10:54:59.443Z,40.39
2023-05-22T10:57:26.125Z,40.06
2023-05-22T10:59:59.640Z,39.91
2023-05-22T11:02:27.078Z,39.58
2023-05-22T11:04:56.251Z,39.14
2023-05-22T11:07:22.831Z,38.60
2023-05-22T11:09:49.929Z,39.83
2023-05-22T11:12:16.525Z,39.79
2023-05-22T11:14:43.876Z,39.62
2023-05-22T11:17:10.561Z,39.65
2023-05-22T11:19:37.748Z,40.42
2023-05-22T11:22:04.694Z,39.72
2023-05-22T11:24:33.573Z,40.34
2023-05-22T11:27:00.582Z,40.16
2023-05-22T11:32:13.892Z,39.35
2023-05-22T11:34:40.497Z,38.64
2023-05-22T11:37:13.149Z,39.40
2023-05-22T11:39:41.824Z,39.60
2023-05-22T11:42:08.486Z,38.46
2023-05-22T11:44:35.586Z,38.25
2023-05-22T11:47:02.479Z,39.07
2023-05-22T11:49:30.380Z,39.66
2023-05-22T11:51:57.308Z,39.18
2023-05-22T11:54:24.618Z,39.12
2023-05-22T11:56:51.519Z,38.59
2023-05-22T11:59:29.859Z,38.27
2023-05-22T12:01:56.429Z,37.90
2023-05-22T12:04:23.938Z,37.61
2023-05-22T12:06:50.784Z,38.28
2023-05-22T12:09:17.930Z,38.41
2023-05-22T12:11:47.711Z,38.38
2023-05-22T12:14:15.401Z,38.01
2023-05-22T12:16:43.052Z,37.83
2023-05-22T12:19:09.725Z,38.08
2023-05-22T12:21:36.501Z,37.52
2023-05-22T12:24:07.116Z,38.22
2023-05-22T12:26:37.102Z,38.87
2023-05-22T12:29:03.752Z,38.49
2023-05-22T12:31:33.577Z,37.90
2023-05-22T12:34:00.352Z,37.75
2023-05-22T12:36:27.905Z,37.58
2023-05-22T12:38:58.864Z,37.07
2023-05-22T12:41:26.623Z,37.97
2023-05-22T12:43:53.285Z,37.48
2023-05-22T12:46:20.221Z,36.56
2023-05-22T12:48:47.836Z,37.05
2023-05-22T12:51:14.453Z,37.34
2023-05-22T12:56:26.342Z,36.03
2023-05-22T12:58:53.841Z,35.90
2023-05-22T13:01:21.443Z,36.17
2023-05-22T13:03:48.351Z,35.51
2023-05-22T13:06:14.997Z,34.28
2023-05-22T13:08:42.154Z,34.56
2023-05-22T13:11:08.862Z,34.69
2023-05-22T13:13:35.798Z,35.22
2023-05-22T13:16:03.002Z,35.22
2023-05-22T13:18:29.786Z,34.91
2023-05-22T13:20:56.424Z,34.68
2023-05-22T13:23:24.271Z,35.76
2023-05-22T13:25:51.878Z,36.60
2023-05-22T13:28:18.900Z,36.17
2023-05-22T13:30:46.489Z,35.66
2023-05-22T13:33:13.346Z,34.16
2023-05-22T13:35:40.594Z,33.27
2023-05-22T13:38:07.407Z,32.49
2023-05-22T13:40:34.266Z,32.13
2023-05-22T13:43:00.899Z,32.41
2023-05-22T13:45:30.355Z,32.45
2023-05-22T13:48:01.890Z,32.04
2023-05-22T13:50:28.513Z,32.23
2023-05-22T13:52:56.130Z,32.30
2023-05-22T13:55:22.775Z,31.61
2023-05-22T13:57:49.348Z,32.06
2023-05-22T14:00:16.240Z,32.61
2023-05-22T14:02:43.011Z,32.14
2023-05-22T14:05:12.964Z,33.89
2023-05-22T14:07:39.458Z,41.72
2023-05-22T14:10:08.156Z,41.25
2023-05-22T14:12:35.573Z,42.64
2023-05-22T14:15:02.249Z,40.97
2023-05-22T14:17:29.471Z,47.70
2023-05-22T14:19:58.443Z,44.00
2023-05-22T14:22:26.545Z,48.56
2023-05-22T14:24:53.430Z,45.83
2023-05-22T14:27:21.111Z,50.68
2023-05-22T14:29:47.737Z,49.72
2023-05-22T14:32:21.111Z,50.18
2023-05-22T14:34:48.577Z,48.41
2023-05-22T14:37:18.968Z,46.57
2023-05-22T14:39:45.874Z,47.18
2023-05-22T14:42:12.688Z,43.72
2023-05-22T14:44:39.348Z,39.86
2023-05-22T14:47:05.964Z,40.73
2023-05-22T14:49:33.979Z,40.50
2023-05-22T14:52:02.901Z,40.29
2023-05-22T14:54:29.409Z,41.31
2023-05-22T14:56:57.841Z,41.10
2023-05-22T14:59:24.927Z,41.38
2023-05-22T15:01:53.098Z,38.22
2023-05-22T15:04:22.361Z,36.74
2023-05-22T15:06:49.317Z,36.07
2023-05-22T15:09:16.224Z,34.67
2023-05-22T15:11:43.040Z,36.00
2023-05-22T15:14:09.786Z,36.89
2023-05-22T15:16:37.784Z,34.67
2023-05-22T15:19:04.808Z,34.01
2023-05-22T15:21:31.938Z,34.34
2023-05-22T15:23:58.795Z,34.54
2023-05-22T15:26:32.133Z,34.79
2023-05-22T15:28:59.711Z,34.89
2023-05-22T15:31:28.068Z,35.22
2023-05-22T15:33:59.051Z,34.49
2023-05-22T15:36:25.660Z,35.23
2023-05-22T15:38:52.595Z,35.68
2023-05-22T15:41:19.519Z,35.53
2023-05-22T15:43:46.306Z,35.36
2023-05-22T15:46:13.405Z,34.51
2023-05-22T15:48:42.870Z,34.99
2023-05-22T15:51:09.553Z,34.27
2023-05-22T15:53:38.145Z,34.88
2023-05-22T15:56:08.594Z,35.11
2023-05-22T15:58:35.763Z,35.23
2023-05-22T16:01:08.188Z,36.05
2023-05-22T16:03:41.798Z,36.47
2023-05-22T16:06:08.453Z,35.25
2023-05-22T16:08:36.427Z,35.83
2023-05-22T16:11:05.393Z,34.85
2023-05-22T16:13:33.187Z,36.81
2023-05-22T16:15:59.872Z,37.36
2023-05-22T16:18:27.507Z,38.17
2023-05-22T16:20:55.230Z,39.62
2023-05-22T16:23:22.120Z,41.03
2023-05-22T16:25:50.892Z,42.74
2023-05-22T16:28:26.595Z,43.38
2023-05-22T16:30:55.297Z,44.81
2023-05-22T16:33:21.947Z,46.85
2023-05-22T16:35:52.465Z,49.81
2023-05-22T16:38:19.681Z,50.91
2023-05-22T16:40:46.347Z,58.24
2023-05-22T16:43:15.248Z,55.37
2023-05-22T16:45:42.265Z,55.12
2023-05-22T16:48:09.071Z,56.54
2023-05-22T16:50:36.514Z,56.00
2023-05-22T16:53:03.129Z,52.84
2023-05-22T16:55:30.189Z,55.83
2023-05-22T16:57:56.674Z,59.47
2023-05-22T17:00:26.749Z,59.90
2023-05-22T17:02:55.137Z,62.13
2023-05-22T17:05:22.280Z,64.69
2023-05-22T17:07:49.114Z,66.14
2023-05-22T17:10:15.913Z,62.66
2023-05-22T17:12:42.520Z,62.81
2023-05-22T17:15:09.538Z,62.87
2023-05-22T17:17:36.679Z,60.92
2023-05-22T17:20:03.520Z,62.93
2023-05-22T17:22:30.235Z,62.29
2023-05-22T17:24:59.384Z,65.40
2023-05-22T17:27:35.515Z,65.73
2023-05-22T17:30:03.814Z,65.16
2023-05-22T17:32:30.868Z,65.02
2023-05-22T17:34:58.441Z,63.11
2023-05-22T17:37:25.321Z,66.02
2023-05-22T17:39:52.029Z,65.64
2023-05-22T17:42:24.133Z,64.01
2023-05-22T17:44:50.691Z,63.38
2023-05-22T17:47:19.342Z,62.54
2023-05-22T17:49:48.016Z,61.56
2023-05-22T17:52:14.579Z,61.20
2023-05-22T17:54:41.319Z,61.80
2023-05-22T17:57:10.229Z,62.49
2023-05-22T17:59:42.477Z,63.10
2023-05-22T18:02:10.089Z,61.16
2023-05-22T18:04:36.694Z,60.99
2023-05-22T18:07:03.585Z,58.73
2023-05-22T18:12:40.288Z,60.21
2023-05-22T18:15:07.040Z,59.40
2023-05-22T18:17:33.668Z,60.21
2023-05-22T18:20:00.871Z,60.07
2023-05-22T18:22:27.581Z,59.97
2023-05-22T18:24:54.292Z,60.75
2023-05-22T18:27:22.447Z,59.14
2023-05-22T18:29:49.605Z,60.60
2023-05-22T18:32:16.264Z,61.10
2023-05-22T18:34:44.975Z,59.36
2023-05-22T18:37:14.772Z,57.83
2023-05-22T18:39:41.784Z,57.43
2023-05-22T18:42:08.835Z,54.98
2023-05-22T18:44:35.458Z,56.41
2023-05-22T18:47:04.852Z,53.03
2023-05-22T18:49:31.582Z,54.18
2023-05-22T18:51:59.138Z,51.94
2023-05-22T18:54:26.304Z,52.71
2023-05-22T18:56:53.105Z,55.05
2023-05-22T18:59:22.358Z,56.14
2023-05-22T19:01:49.125Z,56.33
2023-05-22T19:04:16.045Z,58.04
2023-05-22T19:06:42.803Z,58.74
2023-05-22T19:09:15.182Z,57.92
2023-05-22T19:11:41.943Z,59.28
2023-05-22T19:14:14.161Z,58.68
2023-05-22T19:16:43.002Z,60.29
2023-05-22T19:19:10.783Z,58.76
2023-05-22T19:21:38.876Z,56.82
2023-05-22T19:26:48.635Z,55.39
2023-05-22T19:29:16.791Z,55.40
2023-05-22T19:31:45.904Z,54.87
2023-05-22T19:34:22.283Z,55.87
2023-05-22T19:36:50.005Z,54.97
2023-05-22T19:39:16.873Z,53.46
2023-05-22T19:41:44.085Z,54.22
2023-05-22T19:44:11.007Z,53.96
2023-05-22T19:46:37.940Z,53.48
2023-05-22T19:49:05.134Z,53.10
2023-05-22T19:51:32.051Z,53.81
2023-05-22T19:54:01.376Z,54.81
2023-05-22T19:56:28.205Z,55.21
2023-05-22T19:58:58.253Z,56.66
2023-05-22T20:01:25.135Z,57.73
2023-05-22T20:03:54.299Z,58.82
2023-05-22T20:06:21.648Z,60.11
2023-05-22T20:08:49.269Z,60.67
2023-05-22T20:11:16.144Z,59.67
2023-05-22T20:13:43.588Z,60.50
2023-05-22T20:16:10.500Z,60.30
2023-05-22T20:18:39.010Z,61.08
2023-05-22T20:21:05.671Z,60.62
2023-05-22T20:23:34.514Z,61.24
2023-05-22T20:26:01.446Z,62.77
2023-05-22T20:28:28.847Z,63.86
2023-05-22T20:30:57.479Z,65.90
2023-05-22T20:33:27.623Z,66.74
2023-05-22T20:35:54.705Z,66.63
2023-05-22T20:38:21.343Z,64.95
2023-05-22T20:40:48.320Z,64.23
2023-05-22T20:43:16.263Z,64.33
2023-05-22T20:45:43.145Z,64.72
2023-05-22T20:48:13.299Z,63.61
2023-05-22T20:50:43.022Z,62.90
2023-05-22T20:53:11.119Z,62.03
2023-05-22T20:55:38.288Z,62.03
2023-05-22T20:58:05.392Z,59.81
2023-05-22T21:00:32.057Z,60.06
2023-05-22T21:03:00.731Z,58.25
2023-05-22T21:05:30.755Z,57.55
2023-05-22T21:07:57.473Z,57.28
2023-05-22T21:10:24.507Z,56.75
2023-05-22T21:12:51.126Z,57.64
2023-05-22T21:15:17.723Z,55.42
2023-05-22T21:17:45.876Z,54.91
2023-05-22T21:20:12.828Z,53.51
2023-05-22T21:22:42.140Z,52.74
2023-05-22T21:25:08.697Z,54.09
2023-05-22T21:27:35.513Z,55.57
2023-05-22T21:30:02.381Z,55.08
2023-05-22T21:32:29.305Z,56.65
2023-05-22T21:34:56.280Z,57.06
2023-05-22T21:37:23.084Z,57.09
2023-05-22T21:39:49.941Z,56.34
2023-05-22T21:42:16.981Z,55.42
2023-05-22T21:44:45.906Z,55.62
2023-05-22T21:47:12.583Z,55.06
2023-05-22T21:49:41.594Z,55.97
2023-05-22T21:52:08.555Z,56.44
2023-05-22T21:54:35.303Z,56.30
2023-05-22T21:57:02.002Z,57.47
2023-05-22T21:59:29.119Z,57.35
2023-05-22T22:01:56.248Z,56.26
2023-05-22T22:04:22.862Z,56.37
2023-05-22T22:06:49.403Z,56.59
2023-05-22T22:09:16.247Z,58.66
2023-05-22T22:11:42.770Z,58.54
2023-05-22T22:14:09.637Z,57.02
2023-05-22T22:16:36.637Z,56.43
2023-05-22T22:19:03.523Z,56.44
2023-05-22T22:21:30.563Z,55.90
2023-05-22T22:23:57.436Z,55.26
2023-05-22T22:26:24.304Z,54.77
2023-05-22T22:28:51.386Z,55.11
2023-05-22T22:31:18.324Z,54.72
2023-05-22T22:33:45.207Z,55.37
2023-05-22T22:36:11.848Z,55.27
2023-05-22T22:38:38.709Z,54.90
2023-05-22T22:41:05.416Z,54.63
2023-05-22T22:43:32.064Z,54.90
2023-05-22T22:45:58.732Z,56.84
2023-05-22T22:48:25.560Z,56.44
2023-05-22T22:50:52.160Z,55.11
2023-05-22T22:53:20.861Z,54.42
2023-05-22T22:55:47.706Z,54.98
2023-05-22T22:58:15.190Z,55.23
2023-05-22T23:00:42.045Z,54.90
2023-05-22T23:03:08.674Z,55.32
2023-05-22T23:05:35.564Z,55.60
2023-05-22T23:08:04.261Z,55.98
2023-05-22T23:10:33.733Z,58.34
2023-05-22T23:13:00.289Z,59.10
2023-05-22T23:15:27.039Z,59.32
2023-05-22T23:17:53.846Z,59.49
2023-05-22T23:20:20.590Z,58.49
2023-05-22T23:22:48.071Z,58.64
2023-05-22T23:25:14.717Z,57.24
2023-05-22T23:27:41.395Z,56.52
2023-05-22T23:30:08.755Z,56.58
2023-05-22T23:32:35.335Z,56.65
2023-05-22T23:35:01.992Z,55.92
2023-05-22T23:37:28.540Z,56.08
2023-05-22T23:39:55.175Z,57.41
2023-05-22T23:42:21.779Z,56.13
2023-05-22T23:44:48.325Z,56.61
2023-05-22T23:47:15.288Z,55.96
2023-05-22T23:49:41.974Z,55.82
2023-05-22T23:52:08.590Z,55.73
2023-05-22T23:54:35.061Z,55.77
2023-05-22T23:57:01.778Z,55.60
2023-05-22T23:59:28.278Z,55.21
